createdAt,value
2023-05-02T00:00:04.133Z,100757.78
2023-05-02T00:02:31.729Z,100745.59
2023-05-02T00:05:01.067Z,100754.63
2023-05-02T00:07:28.782Z,100755.66
2023-05-02T00:09:56.269Z,100750.84
2023-05-02T00:12:23.730Z,100762.56
2023-05-02T00:14:51.224Z,100761.09
2023-05-02T00:17:19.615Z,100756.16
2023-05-02T00:19:47.666Z,100755.16
2023-05-02T00:22:16.459Z,100752.94
2023-05-02T00:24:43.900Z,100759.53
2023-05-02T00:27:11.404Z,100760.72
2023-05-02T00:29:38.856Z,100758.22
2023-05-02T00:32:06.995Z,100763.53
2023-05-02T00:34:34.632Z,100767.66
2023-05-02T00:37:02.093Z,100769.75
2023-05-02T00:39:30.913Z,100772.09
2023-05-02T00:41:58.741Z,100771.34
2023-05-02T00:44:26.260Z,100767.34
2023-05-02T00:46:53.836Z,100768.94
2023-05-02T00:49:21.387Z,100762.97
2023-05-02T00:51:48.877Z,100762.56
2023-05-02T00:54:16.594Z,100775.56
2023-05-02T00:56:45.588Z,100777.81
2023-05-02T00:59:13.395Z,100777.16
2023-05-02T01:01:51.610Z,100770.97
2023-05-02T01:04:26.527Z,100779.66
2023-05-02T01:07:01.433Z,100787.34
2023-05-02T01:09:36.541Z,100787.69
2023-05-02T01:12:07.664Z,100792.81
2023-05-02T01:14:37.140Z,100791.03
2023-05-02T01:17:06.312Z,100790.44
2023-05-02T01:19:37.316Z,100792.28
2023-05-02T01:22:07.930Z,100795.16
2023-05-02T01:24:40.242Z,100797.56
2023-05-02T01:27:17.112Z,100799.44
2023-05-02T01:29:46.821Z,100797.22
2023-05-02T01:32:16.336Z,100791.97
2023-05-02T01:34:44.368Z,100803.59
2023-05-02T01:37:12.987Z,100801.00
2023-05-02T01:39:41.363Z,100808.81
2023-05-02T01:42:08.831Z,100800.59
2023-05-02T01:44:37.542Z,100807.78
2023-05-02T01:47:07.514Z,100814.59
2023-05-02T01:49:35.764Z,100821.13
2023-05-02T01:52:05.709Z,100817.88
2023-05-02T01:54:34.635Z,100817.41
2023-05-02T01:57:03.768Z,100823.63
2023-05-02T01:59:31.593Z,100829.69
2023-05-02T02:02:00.649Z,100832.75
2023-05-02T02:04:29.901Z,100836.75
2023-05-02T02:07:03.673Z,100840.63
2023-05-02T02:09:31.478Z,100845.69
2023-05-02T02:12:04.548Z,100834.41
2023-05-02T02:14:35.381Z,100844.44
2023-05-02T02:17:03.689Z,100844.63
2023-05-02T02:19:33.044Z,100842.03
2023-05-02T02:22:01.552Z,100853.03
2023-05-02T02:24:29.890Z,100853.88
2023-05-02T02:26:57.584Z,100856.44
2023-05-02T02:29:25.453Z,100862.59
2023-05-02T02:31:52.915Z,100863.06
2023-05-02T02:34:21.092Z,100866.84
2023-05-02T02:36:54.808Z,100865.16
2023-05-02T02:39:31.543Z,100870.81
2023-05-02T02:42:04.621Z,100868.88
2023-05-02T02:44:41.007Z,100870.81
2023-05-02T02:47:13.161Z,100871.72
2023-05-02T02:49:48.850Z,100875.09
2023-05-02T02:52:23.441Z,100868.03
2023-05-02T02:54:53.887Z,100871.97
2023-05-02T02:57:35.727Z,100867.47
2023-05-02T03:00:08.399Z,100873.53
2023-05-02T03:02:36.984Z,100870.22
2023-05-02T03:05:06.296Z,100867.38
2023-05-02T03:07:35.106Z,100870.75
2023-05-02T03:10:04.206Z,100876.75
2023-05-02T03:12:32.004Z,100882.78
2023-05-02T03:15:07.212Z,100891.22
2023-05-02T03:17:34.677Z,100889.84
2023-05-02T03:20:02.299Z,100890.28
2023-05-02T03:22:29.915Z,100901.34
2023-05-02T03:24:58.702Z,100901.19
2023-05-02T03:27:26.215Z,100908.81
2023-05-02T03:29:53.653Z,100911.25
2023-05-02T03:32:21.217Z,100922.06
2023-05-02T03:34:49.404Z,100918.50
2023-05-02T03:37:16.900Z,100919.44
2023-05-02T03:39:45.220Z,100928.25
2023-05-02T03:42:14.077Z,100930.09
2023-05-02T03:44:41.567Z,100928.53
2023-05-02T03:47:09.173Z,100933.84
2023-05-02T03:49:36.962Z,100930.66
2023-05-02T03:52:04.420Z,100937.63
2023-05-02T03:54:34.166Z,100935.44
2023-05-02T03:57:01.686Z,100941.31
2023-05-02T03:59:30.709Z,100944.28
2023-05-02T04:01:58.196Z,100948.44
2023-05-02T04:04:25.891Z,100940.72
2023-05-02T04:06:53.382Z,100944.78
2023-05-02T04:09:25.028Z,100947.94
2023-05-02T04:11:52.754Z,100948.25
2023-05-02T04:14:20.222Z,100950.84
2023-05-02T04:16:50.598Z,100949.59
2023-05-02T04:19:19.023Z,100950.22
2023-05-02T04:21:46.612Z,100955.59
2023-05-02T04:24:14.429Z,100962.28
2023-05-02T04:26:41.976Z,100970.03
2023-05-02T04:29:09.452Z,100977.09
2023-05-02T04:31:37.132Z,100986.44
2023-05-02T04:34:05.961Z,100991.44
2023-05-02T04:36:34.032Z,100992.94
2023-05-02T04:39:01.497Z,100998.00
2023-05-02T04:41:29.107Z,100998.78
2023-05-02T04:43:56.565Z,101002.28
2023-05-02T04:46:24.012Z,101009.91
2023-05-02T04:48:51.530Z,101018.19
2023-05-02T04:51:20.317Z,101023.44
2023-05-02T04:53:47.749Z,101023.78
2023-05-02T04:56:15.194Z,101031.16
2023-05-02T04:58:42.638Z,101032.91
2023-05-02T05:01:10.240Z,101037.78
2023-05-02T05:03:38.063Z,101039.66
2023-05-02T05:06:05.838Z,101039.47
2023-05-02T05:08:34.677Z,101044.34
2023-05-02T05:11:02.528Z,101052.09
2023-05-02T05:13:30.026Z,101054.56
2023-05-02T05:15:57.542Z,101046.56
2023-05-02T05:18:25.087Z,101055.59
2023-05-02T05:20:52.534Z,101059.00
2023-05-02T05:23:20.010Z,101065.06
2023-05-02T05:25:48.965Z,101061.66
2023-05-02T05:28:16.421Z,101070.03
2023-05-02T05:30:43.873Z,101067.66
2023-05-02T05:33:11.489Z,101081.06
2023-05-02T05:35:39.042Z,101083.56
2023-05-02T05:38:06.929Z,101086.72
2023-05-02T05:40:34.379Z,101085.16
2023-05-02T05:43:03.138Z,101096.94
2023-05-02T05:45:30.585Z,101095.25
2023-05-02T05:48:06.098Z,101103.19
2023-05-02T05:50:33.572Z,101104.84
2023-05-02T05:53:01.012Z,101113.94
2023-05-02T05:55:28.690Z,101112.81
2023-05-02T05:57:56.117Z,101106.78
2023-05-02T06:00:24.962Z,101117.72
2023-05-02T06:02:52.550Z,101122.25
2023-05-02T06:05:20.087Z,101117.72
2023-05-02T06:07:47.509Z,101125.16
2023-05-02T06:10:15.144Z,101121.56
2023-05-02T06:12:42.593Z,101138.72
2023-05-02T06:15:10.719Z,101129.00
2023-05-02T06:17:39.534Z,101130.19
2023-05-02T06:20:08.423Z,101130.75
2023-05-02T06:22:35.862Z,101141.16
2023-05-02T06:25:05.151Z,101143.31
2023-05-02T06:27:33.777Z,101144.59
2023-05-02T06:30:01.675Z,101147.53
2023-05-02T06:32:31.407Z,101147.13
2023-05-02T06:35:00.252Z,101145.56
2023-05-02T06:37:27.775Z,101157.22
2023-05-02T06:39:55.229Z,101155.38
2023-05-02T06:42:22.664Z,101159.03
2023-05-02T06:44:50.139Z,101163.69
2023-05-02T06:47:17.704Z,101165.91
2023-05-02T06:49:45.251Z,101164.34
2023-05-02T06:52:14.032Z,101174.09
2023-05-02T06:54:42.358Z,101176.47
2023-05-02T06:57:10.956Z,101177.44
2023-05-02T06:59:38.422Z,101179.19
2023-05-02T07:02:05.892Z,101196.53
2023-05-02T07:04:33.455Z,101184.50
2023-05-02T07:07:00.997Z,101185.16
2023-05-02T07:09:42.346Z,101188.00
2023-05-02T07:12:09.792Z,101188.34
2023-05-02T07:14:37.267Z,101179.59
2023-05-02T07:17:04.783Z,101192.50
2023-05-02T07:19:32.282Z,101193.13
2023-05-02T07:21:59.726Z,101195.69
2023-05-02T07:24:27.321Z,101198.31
2023-05-02T07:26:56.156Z,101197.78
2023-05-02T07:29:23.787Z,101213.31
2023-05-02T07:31:51.534Z,101209.16
2023-05-02T07:34:19.026Z,101211.59
2023-05-02T07:36:46.455Z,101213.00
2023-05-02T07:39:14.069Z,101221.75
2023-05-02T07:41:41.539Z,101225.75
2023-05-02T07:44:10.326Z,101229.34
2023-05-02T07:46:37.890Z,101218.53
2023-05-02T07:49:05.748Z,101221.06
2023-05-02T07:51:33.812Z,101222.41
2023-05-02T07:54:01.838Z,101231.84
2023-05-02T07:56:30.011Z,101231.34
2023-05-02T07:58:57.548Z,101227.19
2023-05-02T08:01:26.342Z,101240.41
2023-05-02T08:03:54.073Z,101248.69
2023-05-02T08:06:22.558Z,101241.44
2023-05-02T08:08:50.084Z,101240.19
2023-05-02T08:11:17.513Z,101248.78
2023-05-02T08:13:45.015Z,101249.09
2023-05-02T08:16:12.667Z,101246.31
2023-05-02T08:18:42.255Z,101255.47
2023-05-02T08:21:09.748Z,101257.38
2023-05-02T08:23:37.651Z,101266.97
2023-05-02T08:26:05.721Z,101255.16
2023-05-02T08:28:33.214Z,101264.50
2023-05-02T08:31:00.713Z,101263.22
2023-05-02T08:33:28.201Z,101270.72
2023-05-02T08:35:56.979Z,101269.19
2023-05-02T08:38:24.453Z,101272.75
2023-05-02T08:40:51.910Z,101273.97
2023-05-02T08:43:19.395Z,101284.91
2023-05-02T08:45:46.872Z,101285.75
2023-05-02T08:48:16.773Z,101292.38
2023-05-02T08:50:46.605Z,101296.84
2023-05-02T08:53:15.546Z,101298.75
2023-05-02T08:55:43.728Z,101297.50
2023-05-02T08:58:14.661Z,101303.09
2023-05-02T09:00:44.033Z,101305.72
2023-05-02T09:03:21.348Z,101310.94
2023-05-02T09:05:55.082Z,101318.28
2023-05-02T09:08:24.971Z,101319.63
2023-05-02T09:10:52.723Z,101325.09
2023-05-02T09:13:30.613Z,101321.38
2023-05-02T09:15:59.483Z,101324.47
2023-05-02T09:18:29.742Z,101332.09
2023-05-02T09:20:57.727Z,101341.00
2023-05-02T09:23:35.133Z,101334.00
2023-05-02T09:26:03.144Z,101331.13
2023-05-02T09:28:41.842Z,101328.63
2023-05-02T09:31:10.336Z,101320.84
2023-05-02T09:33:38.461Z,101325.50
2023-05-02T09:36:07.089Z,101316.78
2023-05-02T09:38:35.897Z,101321.16
2023-05-02T09:41:04.543Z,101318.69
2023-05-02T09:43:32.860Z,101333.75
2023-05-02T09:46:01.979Z,101325.84
2023-05-02T09:48:30.599Z,101332.44
2023-05-02T09:50:58.619Z,101336.88
2023-05-02T09:53:27.660Z,101336.09
2023-05-02T09:56:04.091Z,101335.34
2023-05-02T09:58:32.037Z,101342.69
2023-05-02T10:00:59.854Z,101338.16
2023-05-02T10:03:28.932Z,101341.53
2023-05-02T10:05:57.356Z,101342.69
2023-05-02T10:08:28.448Z,101332.75
2023-05-02T10:10:57.172Z,101333.63
2023-05-02T10:13:32.006Z,101335.91
2023-05-02T10:16:01.394Z,101326.41
2023-05-02T10:18:31.903Z,101328.72
2023-05-02T10:21:00.751Z,101325.66
2023-05-02T10:23:29.201Z,101331.94
2023-05-02T10:26:00.032Z,101329.22
2023-05-02T10:28:29.997Z,101322.38
2023-05-02T10:30:58.339Z,101323.19
2023-05-02T10:33:26.122Z,101325.34
2023-05-02T10:35:53.771Z,101329.47
2023-05-02T10:38:23.354Z,101325.75
2023-05-02T10:40:56.059Z,101330.91
2023-05-02T10:43:25.749Z,101329.25
2023-05-02T10:45:55.654Z,101329.47
2023-05-02T10:48:24.898Z,101331.13
2023-05-02T10:50:53.800Z,101317.66
2023-05-02T10:53:28.708Z,101322.44
2023-05-02T10:56:18.649Z,101316.25
2023-05-02T10:58:46.936Z,101308.78
2023-05-02T11:01:39.652Z,101313.53
2023-05-02T11:04:08.187Z,101303.38
2023-05-02T11:06:36.869Z,101305.03
2023-05-02T11:09:35.290Z,101297.63
2023-05-02T11:12:04.848Z,101302.56
2023-05-02T11:14:49.562Z,101295.94
2023-05-02T11:17:19.073Z,101293.47
2023-05-02T11:20:29.029Z,101293.88
2023-05-02T11:23:02.337Z,101290.97
2023-05-02T11:25:39.990Z,101294.69
2023-05-02T11:28:09.417Z,101294.25
2023-05-02T11:30:44.606Z,101287.38
2023-05-02T11:33:17.456Z,101294.25
2023-05-02T11:35:46.637Z,101287.22
2023-05-02T11:38:16.275Z,101287.59
2023-05-02T11:40:58.476Z,101274.72
2023-05-02T11:43:29.365Z,101275.13
2023-05-02T11:46:00.058Z,101276.09
2023-05-02T11:48:29.149Z,101281.28
2023-05-02T11:50:58.206Z,101280.00
2023-05-02T11:53:27.693Z,101273.72
2023-05-02T11:55:57.253Z,101272.56
2023-05-02T11:58:26.112Z,101275.03
2023-05-02T12:00:54.425Z,101279.75
2023-05-02T12:03:23.417Z,101278.00
2023-05-02T12:05:52.503Z,101274.03
2023-05-02T12:08:25.038Z,101280.22
2023-05-02T12:10:54.115Z,101278.31
2023-05-02T12:13:23.348Z,101274.03
2023-05-02T12:15:51.705Z,101282.13
2023-05-02T12:18:22.078Z,101278.81
2023-05-02T12:20:49.834Z,101282.28
2023-05-02T12:23:18.977Z,101284.50
2023-05-02T12:25:46.485Z,101293.78
2023-05-02T12:28:14.026Z,101268.91
2023-05-02T12:30:41.777Z,101274.81
2023-05-02T12:33:09.666Z,101300.66
2023-05-02T12:35:37.378Z,101307.91
2023-05-02T12:38:13.336Z,101312.72
2023-05-02T12:40:48.136Z,101318.69
2023-05-02T12:43:15.580Z,101316.84
2023-05-02T12:45:43.694Z,101321.00
2023-05-02T12:48:25.060Z,101318.28
2023-05-02T12:50:53.016Z,101312.91
2023-05-02T12:53:41.975Z,101312.63
2023-05-02T12:56:13.947Z,101320.72
2023-05-02T12:58:43.558Z,101316.16
2023-05-02T13:01:11.290Z,101318.63
2023-05-02T13:03:39.276Z,101312.41
2023-05-02T13:06:07.259Z,101317.19
2023-05-02T13:08:35.282Z,101320.50
2023-05-02T13:11:03.870Z,101310.13
2023-05-02T13:13:33.416Z,101313.81
2023-05-02T13:16:00.995Z,101315.38
2023-05-02T13:18:28.908Z,101320.09
2023-05-02T13:20:56.457Z,101335.06
2023-05-02T13:23:23.888Z,101329.34
2023-05-02T13:25:51.329Z,101321.06
2023-05-02T13:28:18.866Z,101326.53
2023-05-02T13:30:47.741Z,101334.03
2023-05-02T13:33:15.357Z,101334.59
2023-05-02T13:35:42.955Z,101330.06
2023-05-02T13:38:10.461Z,101335.88
2023-05-02T13:40:37.959Z,101329.66
2023-05-02T13:43:05.656Z,101330.06
2023-05-02T13:45:33.524Z,101335.88
2023-05-02T13:48:02.481Z,101327.25
2023-05-02T13:50:29.970Z,101336.94
2023-05-02T13:52:57.413Z,101332.91
2023-05-02T13:55:24.930Z,101328.94
2023-05-02T13:57:52.392Z,101331.84
2023-05-02T14:00:20.988Z,101323.88
2023-05-02T14:02:49.153Z,101331.31
2023-05-02T14:05:18.023Z,101333.78
2023-05-02T14:07:45.493Z,101328.19
2023-05-02T14:10:12.963Z,101334.88
2023-05-02T14:12:40.622Z,101330.28
2023-05-02T14:15:09.686Z,101326.22
2023-05-02T14:17:37.137Z,101330.22
2023-05-02T14:20:05.799Z,101343.91
2023-05-02T14:22:34.662Z,101332.56
2023-05-02T14:25:02.188Z,101329.72
2023-05-02T14:27:29.627Z,101341.13
2023-05-02T14:29:57.169Z,101344.25
2023-05-02T14:32:24.599Z,101339.25
2023-05-02T14:34:52.051Z,101352.69
2023-05-02T14:37:19.507Z,101349.94
2023-05-02T14:39:51.634Z,101354.63
2023-05-02T14:42:20.293Z,101353.19
2023-05-02T14:44:47.721Z,101357.25
2023-05-02T14:47:15.267Z,101349.75
2023-05-02T14:49:42.864Z,101356.81
2023-05-02T14:52:10.374Z,101355.59
2023-05-02T14:54:37.878Z,101362.34
2023-05-02T14:57:07.914Z,101361.50
2023-05-02T14:59:35.874Z,101362.72
2023-05-02T15:02:03.465Z,101359.72
2023-05-02T15:04:31.194Z,101357.81
2023-05-02T15:06:58.900Z,101369.22
2023-05-02T15:09:26.924Z,101376.94
2023-05-02T15:11:54.508Z,101372.91
2023-05-02T15:14:23.447Z,101381.59
2023-05-02T15:16:51.360Z,101376.22
2023-05-02T15:19:18.925Z,101373.53
2023-05-02T15:21:46.380Z,101378.91
2023-05-02T15:24:13.873Z,101384.13
2023-05-02T15:26:41.344Z,101384.69
2023-05-02T15:29:08.851Z,101392.38
2023-05-02T15:31:38.094Z,101383.91
2023-05-02T15:34:05.656Z,101392.34
2023-05-02T15:36:37.114Z,101386.16
2023-05-02T15:39:04.620Z,101389.06
2023-05-02T15:41:32.099Z,101396.09
2023-05-02T15:44:00.013Z,101390.53
2023-05-02T15:46:27.736Z,101401.06
2023-05-02T15:48:56.778Z,101402.97
2023-05-02T15:51:24.246Z,101407.09
2023-05-02T15:53:52.615Z,101398.41
2023-05-02T15:56:21.118Z,101405.63
2023-05-02T15:58:48.767Z,101413.91
2023-05-02T16:01:16.294Z,101411.22
2023-05-02T16:03:44.011Z,101409.34
2023-05-02T16:06:12.875Z,101409.34
2023-05-02T16:08:40.300Z,101412.25
2023-05-02T16:11:07.899Z,101416.38
2023-05-02T16:13:35.452Z,101418.88
2023-05-02T16:16:02.983Z,101419.72
2023-05-02T16:18:31.160Z,101417.22
2023-05-02T16:20:59.367Z,101416.00
2023-05-02T16:23:28.536Z,101417.22
2023-05-02T16:26:40.648Z,101424.25
2023-05-02T16:29:08.117Z,101419.63
2023-05-02T16:31:35.855Z,101418.47
2023-05-02T16:34:03.930Z,101415.78
2023-05-02T16:36:33.867Z,101416.41
2023-05-02T16:39:07.952Z,101413.91
2023-05-02T16:41:35.749Z,101423.44
2023-05-02T16:44:03.249Z,101427.34
2023-05-02T16:46:32.243Z,101422.53
2023-05-02T16:48:59.749Z,101418.63
2023-05-02T16:51:27.960Z,101422.59
2023-05-02T16:53:55.584Z,101428.38
2023-05-02T16:56:24.385Z,101425.88
2023-05-02T16:58:51.816Z,101430.00
2023-05-02T17:01:19.321Z,101435.81
2023-05-02T17:03:46.949Z,101441.63
2023-05-02T17:06:14.442Z,101424.66
2023-05-02T17:08:42.016Z,101440.84
2023-05-02T17:11:09.449Z,101434.84
2023-05-02T17:13:38.485Z,101444.56
2023-05-02T17:16:08.160Z,101441.88
2023-05-02T17:18:35.820Z,101442.47
2023-05-02T17:21:04.045Z,101453.47
2023-05-02T17:23:31.739Z,101456.38
2023-05-02T17:25:59.460Z,101461.94
2023-05-02T17:28:26.981Z,101463.78
2023-05-02T17:30:56.051Z,101464.88
2023-05-02T17:33:23.573Z,101470.22
2023-05-02T17:35:51.258Z,101472.41
2023-05-02T17:38:18.700Z,101462.69
2023-05-02T17:40:46.245Z,101467.03
2023-05-02T17:43:13.713Z,101470.69
2023-05-02T17:45:41.568Z,101471.63
2023-05-02T17:48:11.091Z,101478.78
2023-05-02T17:50:38.749Z,101477.69
2023-05-02T17:53:06.561Z,101490.19
2023-05-02T17:55:37.184Z,101480.56
2023-05-02T17:58:04.719Z,101487.16
2023-05-02T18:00:32.245Z,101492.66
2023-05-02T18:02:59.810Z,101492.41
2023-05-02T18:05:29.312Z,101489.22
2023-05-02T18:07:58.707Z,101487.50
2023-05-02T18:10:26.257Z,101490.88
2023-05-02T18:12:53.759Z,101494.16
2023-05-02T18:15:21.891Z,101496.19
2023-05-02T18:17:49.409Z,101508.59
2023-05-02T18:20:17.017Z,101511.22
2023-05-02T18:22:46.113Z,101506.25
2023-05-02T18:25:13.568Z,101526.69
2023-05-02T18:27:41.046Z,101527.19
2023-05-02T18:30:09.676Z,101531.34
2023-05-02T18:32:37.210Z,101528.75
2023-05-02T18:35:04.981Z,101541.56
2023-05-02T18:37:32.465Z,101545.91
2023-05-02T18:40:02.874Z,101541.19
2023-05-02T18:42:30.367Z,101547.84
2023-05-02T18:44:57.820Z,101546.72
2023-05-02T18:47:25.396Z,101558.88
2023-05-02T18:49:56.358Z,101551.56
2023-05-02T18:52:24.567Z,101564.28
2023-05-02T18:54:51.990Z,101565.38
2023-05-02T18:57:21.459Z,101574.84
2023-05-02T18:59:48.942Z,101575.09
2023-05-02T19:02:16.438Z,101582.28
2023-05-02T19:04:43.974Z,101584.84
2023-05-02T19:07:11.393Z,101592.91
2023-05-02T19:09:38.832Z,101584.47
2023-05-02T19:12:06.494Z,101599.16
2023-05-02T19:14:35.840Z,101605.06
2023-05-02T19:17:05.540Z,101606.97
2023-05-02T19:19:33.179Z,101607.81
2023-05-02T19:22:01.125Z,101617.38
2023-05-02T19:24:28.608Z,101628.06
2023-05-02T19:26:56.418Z,101633.94
2023-05-02T19:29:23.966Z,101634.16
2023-05-02T19:31:52.811Z,101647.69
2023-05-02T19:34:20.773Z,101643.38
2023-05-02T19:36:48.203Z,101641.53
2023-05-02T19:39:16.194Z,101651.88
2023-05-02T19:41:44.135Z,101646.56
2023-05-02T19:44:11.653Z,101643.09
2023-05-02T19:46:39.193Z,101658.25
2023-05-02T19:49:08.250Z,101660.63
2023-05-02T19:51:35.694Z,101659.78
2023-05-02T19:54:03.179Z,101661.59
2023-05-02T19:56:30.690Z,101670.44
2023-05-02T19:58:58.603Z,101670.97
2023-05-02T20:01:26.652Z,101678.28
2023-05-02T20:03:54.793Z,101672.59
2023-05-02T20:06:23.758Z,101670.72
2023-05-02T20:08:52.727Z,101666.88
2023-05-02T20:11:20.225Z,101679.59
2023-05-02T20:13:47.819Z,101677.25
2023-05-02T20:16:16.032Z,101683.06
2023-05-02T20:18:43.523Z,101695.53
2023-05-02T20:21:11.079Z,101680.03
2023-05-02T20:23:43.154Z,101692.69
2023-05-02T20:26:10.863Z,101696.00
2023-05-02T20:28:52.094Z,101701.50
2023-05-02T20:31:19.551Z,101699.53
2023-05-02T20:33:47.120Z,101704.66
2023-05-02T20:36:15.633Z,101704.66
2023-05-02T20:38:44.971Z,101706.63
2023-05-02T20:41:13.809Z,101706.09
2023-05-02T20:43:44.589Z,101706.47
2023-05-02T20:46:12.993Z,101707.44
2023-05-02T20:48:40.588Z,101714.94
2023-05-02T20:51:08.636Z,101714.78
2023-05-02T20:53:36.629Z,101715.59
2023-05-02T20:56:06.052Z,101719.09
2023-05-02T20:58:33.518Z,101726.03
2023-05-02T21:01:01.051Z,101729.34
2023-05-02T21:03:29.076Z,101728.34
2023-05-02T21:05:59.433Z,101734.00
2023-05-02T21:08:26.888Z,101731.97
2023-05-02T21:10:54.624Z,101735.97
2023-05-02T21:13:23.762Z,101730.41
2023-05-02T21:15:51.276Z,101733.16
2023-05-02T21:18:18.803Z,101733.84
2023-05-02T21:20:49.076Z,101730.72
2023-05-02T21:23:16.536Z,101730.81
2023-05-02T21:25:44.130Z,101743.78
2023-05-02T21:28:12.352Z,101736.03
2023-05-02T21:30:41.281Z,101743.38
2023-05-02T21:33:09.192Z,101747.16
2023-05-02T21:35:36.861Z,101745.03
2023-05-02T21:38:04.307Z,101741.97
2023-05-02T21:40:32.304Z,101747.94
2023-05-02T21:42:59.734Z,101740.63
2023-05-02T21:45:27.641Z,101750.94
2023-05-02T21:47:57.042Z,101752.22
2023-05-02T21:50:24.744Z,101755.13
2023-05-02T21:52:52.184Z,101750.38
2023-05-02T21:55:19.663Z,101745.88
2023-05-02T21:57:47.188Z,101743.78
2023-05-02T22:00:15.307Z,101745.97
2023-05-02T22:02:42.956Z,101745.28
2023-05-02T22:05:13.608Z,101742.41
2023-05-02T22:07:41.644Z,101745.69
2023-05-02T22:10:11.518Z,101750.84
2023-05-02T22:12:38.937Z,101747.94
2023-05-02T22:15:08.255Z,101754.56
2023-05-02T22:17:36.087Z,101748.69
2023-05-02T22:20:03.969Z,101759.94
2023-05-02T22:22:32.946Z,101755.06
2023-05-02T22:25:02.688Z,101751.59
2023-05-02T22:27:30.100Z,101755.34
2023-05-02T22:29:57.542Z,101761.69
2023-05-02T22:32:25.604Z,101758.88
2023-05-02T22:34:53.137Z,101765.06
2023-05-02T22:37:20.715Z,101755.00
2023-05-02T22:39:49.529Z,101755.28
2023-05-02T22:42:16.951Z,101756.59
2023-05-02T22:44:53.638Z,101765.00
2023-05-02T22:47:22.583Z,101768.53
2023-05-02T22:49:51.006Z,101771.06
2023-05-02T22:52:20.452Z,101784.78
2023-05-02T22:54:49.381Z,101777.69
2023-05-02T22:57:16.861Z,101784.00
2023-05-02T22:59:44.334Z,101775.03
2023-05-02T23:02:12.226Z,101786.84
2023-05-02T23:04:39.721Z,101779.84
2023-05-02T23:07:07.151Z,101779.72
2023-05-02T23:09:34.658Z,101786.31
2023-05-02T23:12:05.673Z,101782.53
2023-05-02T23:14:33.282Z,101784.66
2023-05-02T23:17:02.113Z,101778.78
2023-05-02T23:19:30.019Z,101785.75
2023-05-02T23:21:58.010Z,101788.41
2023-05-02T23:24:25.531Z,101787.06
2023-05-02T23:26:52.980Z,101788.47
2023-05-02T23:29:21.769Z,101789.13
2023-05-02T23:31:50.443Z,101787.47
2023-05-02T23:34:17.987Z,101786.63
2023-05-02T23:36:45.503Z,101794.75
2023-05-02T23:39:13.375Z,101798.94
2023-05-02T23:41:40.848Z,101798.66
2023-05-02T23:44:08.269Z,101796.16
2023-05-02T23:46:37.091Z,101792.38
2023-05-02T23:49:04.573Z,101788.91
2023-05-02T23:51:32.693Z,101789.78
2023-05-02T23:54:00.182Z,101780.41
2023-05-02T23:56:27.633Z,101787.28
2023-05-02T23:58:57.224Z,101791.22
